createdAt,value
2019-03-04T00:02:21.997Z,77.90
2019-03-04T00:04:50.355Z,78.70
2019-03-04T00:07:19.005Z,79.10
2019-03-04T00:09:47.383Z,79.20
2019-03-04T00:12:15.720Z,79.80
2019-03-04T00:14:44.063Z,81.90
2019-03-04T00:17:12.437Z,82.50
2019-03-04T00:19:40.762Z,83.00
2019-03-04T00:22:09.142Z,83.00
2019-03-04T00:24:37.549Z,83.60
2019-03-04T00:27:05.907Z,82.90
2019-03-04T00:29:34.326Z,82.40
2019-03-04T00:32:02.675Z,81.90
2019-03-04T00:34:31.042Z,81.30
2019-03-04T00:36:59.321Z,80.80
2019-03-04T00:39:27.733Z,80.80
2019-03-04T00:41:58.411Z,81.00
2019-03-04T00:44:26.193Z,80.60
2019-03-04T00:46:54.561Z,80.00
2019-03-04T00:49:22.867Z,79.60
2019-03-04T00:51:51.175Z,79.20
2019-03-04T00:54:19.523Z,78.80
2019-03-04T00:56:47.863Z,79.00
2019-03-04T00:59:16.208Z,78.90
2019-03-04T01:01:44.588Z,79.10
2019-03-04T01:04:12.926Z,79.30
2019-03-04T01:06:41.300Z,79.30
2019-03-04T01:09:11.336Z,79.50
2019-03-04T01:11:39.703Z,79.70
2019-03-04T01:14:08.089Z,79.70
2019-03-04T01:16:36.421Z,79.10
2019-03-04T01:19:04.831Z,79.60
2019-03-04T01:21:33.249Z,79.40
2019-03-04T01:24:02.026Z,79.30
2019-03-04T01:26:30.697Z,78.80
2019-03-04T01:28:59.090Z,78.80
2019-03-04T01:31:27.429Z,77.40
2019-03-04T01:33:55.754Z,77.10
2019-03-04T01:36:24.081Z,76.70
2019-03-04T01:38:52.397Z,75.20
2019-03-04T01:41:20.751Z,74.80
2019-03-04T01:43:49.090Z,73.20
2019-03-04T01:46:17.412Z,72.10
2019-03-04T01:48:45.741Z,71.60
2019-03-04T01:51:14.141Z,70.40
2019-03-04T01:53:42.527Z,70.50
2019-03-04T01:56:10.864Z,70.00
2019-03-04T01:58:39.271Z,69.80
2019-03-04T02:01:07.630Z,68.90
2019-03-04T02:03:35.940Z,68.00
2019-03-04T02:06:04.370Z,67.60
2019-03-04T02:08:32.726Z,66.60
2019-03-04T02:11:01.057Z,66.40
2019-03-04T02:13:29.398Z,66.00
2019-03-04T02:15:57.753Z,66.10
2019-03-04T02:18:26.024Z,66.60
2019-03-04T02:20:54.368Z,67.10
2019-03-04T02:23:22.759Z,66.70
2019-03-04T02:26:00.221Z,66.40
2019-03-04T02:28:28.660Z,66.60
2019-03-04T02:30:56.962Z,66.20
2019-03-04T02:33:25.349Z,65.90
2019-03-04T02:35:53.655Z,66.50
2019-03-04T02:38:22.513Z,66.40
2019-03-04T02:40:50.977Z,66.50
2019-03-04T02:43:19.361Z,67.30
2019-03-04T02:45:47.729Z,67.80
2019-03-04T02:48:16.098Z,68.00
2019-03-04T02:50:44.960Z,68.20
2019-03-04T02:53:13.366Z,68.40
2019-03-04T02:55:41.742Z,68.80
2019-03-04T02:58:10.065Z,69.50
2019-03-04T03:00:38.449Z,70.00
2019-03-04T03:03:06.799Z,70.60
2019-03-04T03:05:35.103Z,70.60
2019-03-04T03:08:03.400Z,70.90
2019-03-04T03:10:31.770Z,70.90
2019-03-04T03:13:00.117Z,71.10
2019-03-04T03:15:28.441Z,71.10
2019-03-04T03:17:56.765Z,70.80
2019-03-04T03:20:25.137Z,71.60
2019-03-04T03:22:53.489Z,71.60
2019-03-04T03:25:21.900Z,72.00
2019-03-04T03:27:50.343Z,72.30
2019-03-04T03:30:23.269Z,72.70
2019-03-04T03:32:51.754Z,73.10
2019-03-04T03:35:20.140Z,73.30
2019-03-04T03:37:48.489Z,73.90
2019-03-04T03:40:18.360Z,73.80
2019-03-04T03:42:47.023Z,73.90
2019-03-04T03:45:15.375Z,73.90
2019-03-04T03:47:43.750Z,73.80
2019-03-04T03:50:14.545Z,74.10
2019-03-04T03:52:42.979Z,74.70
2019-03-04T03:55:14.891Z,74.40
2019-03-04T03:57:43.225Z,74.90
2019-03-04T04:00:18.790Z,73.80
2019-03-04T04:02:47.098Z,73.30
2019-03-04T04:05:15.500Z,73.00
2019-03-04T04:07:43.879Z,73.40
2019-03-04T04:10:19.620Z,73.30
2019-03-04T04:12:47.966Z,74.40
2019-03-04T04:15:17.557Z,74.30
2019-03-04T04:17:46.227Z,75.00
2019-03-04T04:20:14.582Z,75.40
2019-03-04T04:22:43.283Z,74.90
2019-03-04T04:25:12.213Z,75.20
2019-03-04T04:27:40.602Z,74.40
2019-03-04T04:30:19.165Z,73.60
2019-03-04T04:32:47.676Z,71.90
2019-03-04T04:35:16.008Z,71.40
2019-03-04T04:37:44.313Z,71.50
2019-03-04T04:40:15.959Z,70.60
2019-03-04T04:42:44.345Z,70.90
2019-03-04T04:45:13.021Z,70.10
2019-03-04T04:47:44.961Z,68.70
2019-03-04T04:50:18.767Z,67.90
2019-03-04T04:52:47.085Z,68.50
2019-03-04T04:55:15.485Z,67.70
2019-03-04T04:57:43.835Z,67.20
2019-03-04T05:00:20.757Z,68.00
2019-03-04T05:02:49.135Z,67.80
2019-03-04T05:05:17.405Z,67.40
2019-03-04T05:07:45.709Z,67.50
2019-03-04T05:10:16.794Z,68.70
2019-03-04T05:12:45.146Z,69.00
2019-03-04T05:15:15.088Z,69.20
2019-03-04T05:17:43.420Z,70.20
2019-03-04T05:20:14.656Z,71.00
2019-03-04T05:22:45.341Z,70.50
2019-03-04T05:25:13.645Z,71.00
2019-03-04T05:27:42.032Z,71.50
2019-03-04T05:30:18.179Z,71.60
2019-03-04T05:32:46.457Z,71.80
2019-03-04T05:35:14.823Z,73.40
2019-03-04T05:37:43.153Z,74.60
2019-03-04T05:40:17.395Z,75.50
2019-03-04T05:42:45.787Z,74.10
2019-03-04T05:45:18.648Z,75.10
2019-03-04T05:47:47.018Z,73.40
2019-03-04T05:50:23.237Z,73.80
2019-03-04T05:52:51.924Z,73.20
2019-03-04T05:55:20.323Z,72.30
2019-03-04T05:57:48.734Z,72.30
2019-03-04T06:00:23.567Z,73.30
2019-03-04T06:02:54.226Z,73.60
2019-03-04T06:05:22.558Z,73.40
2019-03-04T06:07:52.549Z,73.30
2019-03-04T06:10:20.940Z,74.20
2019-03-04T06:12:49.693Z,74.10
2019-03-04T06:15:19.686Z,73.80
2019-03-04T06:17:48.084Z,73.30
2019-03-04T06:20:18.292Z,72.70
2019-03-04T06:22:46.777Z,72.90
2019-03-04T06:25:18.046Z,73.60
2019-03-04T06:27:46.416Z,74.10
2019-03-04T06:30:21.767Z,74.70
2019-03-04T06:32:50.080Z,75.00
2019-03-04T06:35:18.829Z,75.50
2019-03-04T06:37:47.160Z,75.60
2019-03-04T06:40:16.805Z,75.70
2019-03-04T06:42:49.978Z,76.20
2019-03-04T06:45:22.922Z,76.50
2019-03-04T06:47:52.737Z,77.10
2019-03-04T06:50:48.997Z,77.30
2019-03-04T06:53:38.804Z,77.30
2019-03-04T06:56:28.227Z,77.00
2019-03-04T06:59:22.452Z,76.00
2019-03-04T07:02:14.866Z,76.50
2019-03-04T07:05:04.453Z,75.20
2019-03-04T07:07:32.830Z,75.30
2019-03-04T07:10:02.243Z,76.90
2019-03-04T07:12:32.048Z,78.70
2019-03-04T07:15:03.496Z,79.40
2019-03-04T07:17:35.704Z,79.40
2019-03-04T07:20:05.060Z,80.20
2019-03-04T07:22:34.726Z,80.30
2019-03-04T07:25:03.227Z,80.70
2019-03-04T07:27:32.039Z,80.20
2019-03-04T07:30:02.102Z,80.80
2019-03-04T07:32:33.772Z,81.10
2019-03-04T07:35:02.448Z,81.70
2019-03-04T07:37:33.396Z,80.40
2019-03-04T07:40:01.727Z,80.40
2019-03-04T07:42:31.347Z,81.90
2019-03-04T07:44:59.846Z,81.20
2019-03-04T07:47:32.993Z,82.20
2019-03-04T07:50:08.908Z,83.60
2019-03-04T07:52:43.060Z,83.70
2019-03-04T07:55:11.924Z,83.00
2019-03-04T07:57:42.924Z,83.80
2019-03-04T08:00:16.456Z,83.20
2019-03-04T08:02:47.593Z,83.50
2019-03-04T08:05:15.895Z,84.70
2019-03-04T08:07:53.360Z,85.60
2019-03-04T08:10:44.301Z,85.90
2019-03-04T08:13:28.058Z,87.00
2019-03-04T08:15:58.193Z,88.50
2019-03-04T08:18:29.399Z,89.40
2019-03-04T08:20:57.677Z,90.30
2019-03-04T08:23:26.678Z,90.70
2019-03-04T08:25:57.064Z,88.90
2019-03-04T08:28:25.401Z,88.30
2019-03-04T08:30:53.721Z,89.80
2019-03-04T08:33:22.130Z,89.90
2019-03-04T08:35:50.469Z,90.50
2019-03-04T08:38:18.763Z,91.00
2019-03-04T08:40:50.445Z,91.20
2019-03-04T08:43:20.986Z,91.20
2019-03-04T08:45:53.280Z,91.60
2019-03-04T08:48:23.596Z,91.80
2019-03-04T08:50:53.071Z,91.30
2019-03-04T08:53:24.748Z,91.10
2019-03-04T08:55:53.363Z,90.80
2019-03-04T08:58:24.300Z,90.50
2019-03-04T09:00:52.577Z,90.50
2019-03-04T09:03:20.923Z,90.60
2019-03-04T09:05:49.256Z,90.80
2019-03-04T09:08:17.671Z,90.80
2019-03-04T09:12:28.873Z,91.00
2019-03-04T09:13:22.302Z,90.70
2019-03-04T09:15:50.761Z,90.40
2019-03-04T09:18:19.052Z,90.50
2019-03-04T09:20:47.515Z,90.90
2019-03-04T09:23:16.077Z,91.20
2019-03-04T09:25:50.611Z,91.10
2019-03-04T09:28:21.057Z,90.90
2019-03-04T09:30:49.568Z,90.70
2019-03-04T09:33:17.950Z,90.40
2019-03-04T09:35:46.601Z,90.10
2019-03-04T09:38:16.716Z,90.50
2019-03-04T09:40:45.401Z,90.70
2019-03-04T09:43:18.280Z,90.10
2019-03-04T09:45:44.523Z,87.60
2019-03-04T09:48:12.834Z,88.20
2019-03-04T09:50:41.213Z,85.10
2019-03-04T09:53:09.605Z,86.60
2019-03-04T09:55:37.960Z,86.50
2019-03-04T09:58:06.374Z,86.10
2019-03-04T10:00:56.074Z,84.80
2019-03-04T10:03:42.852Z,86.20
2019-03-04T10:06:30.964Z,86.30
2019-03-04T10:09:08.269Z,86.90
2019-03-04T10:11:55.072Z,86.00
2019-03-04T10:14:29.649Z,85.40
2019-03-04T10:17:25.496Z,84.90
2019-03-04T10:19:57.143Z,85.30
2019-03-04T10:22:28.791Z,84.70
2019-03-04T10:25:20.514Z,83.40
2019-03-04T10:28:15.806Z,83.20
2019-03-04T10:30:56.389Z,82.80
2019-03-04T10:33:49.210Z,84.00
2019-03-04T10:36:29.910Z,83.50
2019-03-04T10:39:10.589Z,80.80
2019-03-04T10:42:15.848Z,80.90
2019-03-04T10:45:02.549Z,79.90
2019-03-04T10:47:31.007Z,81.30
2019-03-04T10:49:59.319Z,81.20
2019-03-04T10:52:27.993Z,80.50
2019-03-04T10:54:56.300Z,79.00
2019-03-04T10:57:24.658Z,78.50
2019-03-04T10:59:53.135Z,77.70
2019-03-04T11:02:21.397Z,78.90
2019-03-04T11:04:49.754Z,79.00
2019-03-04T11:07:18.084Z,78.40
2019-03-04T11:09:46.467Z,78.30
2019-03-04T11:12:15.248Z,79.40
2019-03-04T11:14:43.583Z,79.20
2019-03-04T11:17:11.926Z,78.80
2019-03-04T11:19:40.248Z,76.00
2019-03-04T11:22:08.601Z,75.80
2019-03-04T11:24:36.969Z,74.70
2019-03-04T11:27:05.314Z,74.50
2019-03-04T11:29:33.644Z,73.30
2019-03-04T11:32:01.956Z,73.30
2019-03-04T11:34:30.355Z,73.40
2019-03-04T11:36:58.689Z,73.20
2019-03-04T11:39:34.776Z,72.10
2019-03-04T11:42:04.854Z,69.60
2019-03-04T11:44:33.290Z,69.30
2019-03-04T11:47:01.673Z,67.90
2019-03-04T11:49:31.721Z,66.30
2019-03-04T11:52:00.112Z,66.60
2019-03-04T11:54:28.495Z,62.70
2019-03-04T11:56:56.838Z,65.50
2019-03-04T11:59:27.601Z,64.70
2019-03-04T12:01:56.086Z,63.70
2019-03-04T12:04:24.614Z,61.20
2019-03-04T12:06:53.076Z,60.30
2019-03-04T12:09:22.506Z,58.30
2019-03-04T12:11:53.430Z,58.30
2019-03-04T12:14:21.747Z,58.80
2019-03-04T12:16:50.065Z,59.70
2019-03-04T12:19:18.414Z,61.60
2019-03-04T12:21:46.727Z,59.70
2019-03-04T12:24:15.103Z,58.20
2019-03-04T12:26:43.391Z,59.30
2019-03-04T12:29:11.838Z,59.40
2019-03-04T12:31:42.018Z,58.10
2019-03-04T12:34:11.958Z,59.30
2019-03-04T12:36:42.043Z,59.20
2019-03-04T12:39:10.359Z,56.80
2019-03-04T12:41:38.721Z,55.60
2019-03-04T12:44:07.072Z,57.10
2019-03-04T12:46:35.716Z,59.10
2019-03-04T12:49:04.175Z,59.20
2019-03-04T12:51:32.536Z,57.70
2019-03-04T12:54:00.923Z,57.50
2019-03-04T12:56:29.265Z,56.20
2019-03-04T12:58:57.662Z,56.30
2019-03-04T13:01:26.164Z,58.60
2019-03-04T13:03:56.703Z,58.20
2019-03-04T13:06:25.171Z,58.00
2019-03-04T13:08:53.817Z,58.40
2019-03-04T13:11:22.186Z,58.10
2019-03-04T13:13:50.505Z,57.90
2019-03-04T13:16:18.950Z,57.30
2019-03-04T13:18:48.833Z,58.00
2019-03-04T13:21:17.474Z,56.80
2019-03-04T13:23:45.823Z,55.90
2019-03-04T13:26:14.321Z,56.60
2019-03-04T13:28:43.039Z,57.50
2019-03-04T13:31:11.411Z,57.00
2019-03-04T13:33:39.900Z,57.70
2019-03-04T13:36:08.972Z,57.80
2019-03-04T13:38:37.405Z,58.60
2019-03-04T13:41:06.289Z,59.40
2019-03-04T13:43:34.685Z,60.40
2019-03-04T13:46:03.014Z,61.10
2019-03-04T13:48:31.355Z,59.30
2019-03-04T13:50:59.798Z,58.20
2019-03-04T13:53:28.691Z,58.30
2019-03-04T13:55:57.074Z,57.60
2019-03-04T13:58:25.431Z,58.20
2019-03-04T14:00:53.884Z,59.10
2019-03-04T14:03:22.239Z,59.70
2019-03-04T14:05:51.046Z,58.80
2019-03-04T14:08:19.626Z,59.10
2019-03-04T14:10:49.463Z,59.20
2019-03-04T14:13:17.840Z,58.80
2019-03-04T14:15:48.586Z,57.30
2019-03-04T14:18:16.984Z,56.30
2019-03-04T14:20:45.321Z,55.10
2019-03-04T14:23:13.844Z,53.10
2019-03-04T14:25:42.156Z,50.80
2019-03-04T14:28:10.544Z,50.50
2019-03-04T14:30:39.336Z,52.80
2019-03-04T14:33:07.654Z,52.40
2019-03-04T14:35:36.021Z,53.20
2019-03-04T14:38:04.399Z,52.60
2019-03-04T14:40:32.818Z,52.60
2019-03-04T14:43:01.164Z,51.90
2019-03-04T14:45:29.500Z,52.50
2019-03-04T14:47:58.251Z,51.90
2019-03-04T14:50:28.440Z,50.90
2019-03-04T14:52:58.389Z,49.80
2019-03-04T14:55:29.148Z,49.50
2019-03-04T14:58:01.781Z,50.50
2019-03-04T15:00:40.159Z,51.60
2019-03-04T15:03:19.015Z,52.00
2019-03-04T15:05:38.860Z,53.60
2019-03-04T15:08:07.555Z,54.20
2019-03-04T15:10:35.868Z,55.60
2019-03-04T15:13:04.241Z,57.20
2019-03-04T15:15:33.686Z,57.40
2019-03-04T15:18:02.118Z,58.80
2019-03-04T15:20:33.368Z,61.50
2019-03-04T15:23:01.807Z,62.20
2019-03-04T15:25:32.768Z,63.10
2019-03-04T15:28:22.050Z,64.40
2019-03-04T15:31:03.839Z,64.20
2019-03-04T15:33:34.739Z,64.80
2019-03-04T15:36:03.115Z,64.40
2019-03-04T15:38:33.499Z,65.00
2019-03-04T15:41:01.902Z,65.30
2019-03-04T15:43:30.273Z,64.80
2019-03-04T15:45:59.098Z,65.70
2019-03-04T15:48:28.882Z,65.70
2019-03-04T15:50:57.222Z,65.50
2019-03-04T15:53:25.560Z,66.10
2019-03-04T15:55:53.881Z,66.30
2019-03-04T15:58:22.249Z,66.40
2019-03-04T16:00:51.564Z,66.50
2019-03-04T16:03:20.033Z,66.70
2019-03-04T16:05:48.483Z,67.80
2019-03-04T16:08:16.762Z,66.30
2019-03-04T16:10:45.183Z,67.00
2019-03-04T16:13:13.490Z,67.20
2019-03-04T16:15:44.591Z,67.10
2019-03-04T16:18:12.969Z,67.50
2019-03-04T16:20:41.287Z,66.50
2019-03-04T16:23:09.626Z,66.60
2019-03-04T16:25:37.930Z,66.80
2019-03-04T16:28:09.630Z,67.50
2019-03-04T16:30:38.340Z,67.60
2019-03-04T16:33:08.330Z,66.90
2019-03-04T16:35:36.674Z,67.10
2019-03-04T16:38:05.034Z,67.00
2019-03-04T16:40:33.371Z,67.00
2019-03-04T16:43:01.723Z,65.00
2019-03-04T16:45:30.101Z,64.60
2019-03-04T16:47:58.564Z,65.20
2019-03-04T16:50:41.000Z,65.40
2019-03-04T16:53:13.062Z,65.80
2019-03-04T16:55:41.404Z,66.20
2019-03-04T16:58:09.766Z,66.70
2019-03-04T17:00:38.083Z,67.30
2019-03-04T17:03:06.711Z,67.90
2019-03-04T17:05:35.077Z,68.40
2019-03-04T17:08:03.398Z,68.90
2019-03-04T17:10:31.814Z,68.80
2019-03-04T17:13:00.145Z,68.60
2019-03-04T17:15:28.503Z,68.50
2019-03-04T17:17:56.819Z,68.60
2019-03-04T17:20:25.195Z,68.60
2019-03-04T17:22:53.593Z,68.50
2019-03-04T17:25:25.378Z,68.60
2019-03-04T17:27:53.668Z,68.70
2019-03-04T17:30:26.109Z,69.00
2019-03-04T17:32:54.484Z,69.30
2019-03-04T17:35:24.152Z,68.70
2019-03-04T17:37:52.465Z,68.90
2019-03-04T17:40:23.161Z,69.50
2019-03-04T17:42:51.419Z,69.40
2019-03-04T17:45:24.365Z,69.40
2019-03-04T17:47:53.126Z,71.30
2019-03-04T17:50:30.443Z,73.40
2019-03-04T17:52:58.729Z,76.50
2019-03-04T17:55:26.994Z,80.90
2019-03-04T17:57:55.253Z,85.50
2019-03-04T18:00:23.534Z,87.40
2019-03-04T18:02:52.108Z,88.30
2019-03-04T18:05:21.132Z,88.30
2019-03-04T18:07:49.388Z,88.80
2019-03-04T18:10:18.401Z,89.60
2019-03-04T18:12:46.664Z,90.00
2019-03-04T18:15:27.149Z,90.00
2019-03-04T18:17:55.672Z,89.80
2019-03-04T18:20:33.611Z,90.00
2019-03-04T18:22:53.909Z,89.80
2019-03-04T18:25:46.568Z,89.60
2019-03-04T18:28:35.729Z,89.90
2019-03-04T18:31:30.215Z,89.60
2019-03-04T18:34:30.457Z,89.30
2019-03-04T18:37:10.807Z,89.60
2019-03-04T18:39:54.175Z,89.80
2019-03-04T18:42:46.701Z,89.10
2019-03-04T18:45:29.885Z,89.10
2019-03-04T18:48:10.333Z,89.10
2019-03-04T18:50:38.936Z,89.20
2019-03-04T18:53:07.600Z,88.90
2019-03-04T18:55:37.457Z,89.20
2019-03-04T18:58:05.981Z,90.00
2019-03-04T19:00:34.288Z,89.90
2019-03-04T19:03:02.608Z,89.80
2019-03-04T19:05:31.331Z,89.80
2019-03-04T19:07:59.708Z,89.70
2019-03-04T19:10:28.062Z,89.50
2019-03-04T19:12:56.359Z,89.80
2019-03-04T19:15:24.672Z,89.60
2019-03-04T19:17:53.024Z,89.70
2019-03-04T19:20:24.266Z,89.10
2019-03-04T19:22:52.565Z,89.20
2019-03-04T19:25:20.841Z,89.50
2019-03-04T19:27:49.189Z,89.10
2019-03-04T19:30:17.510Z,89.20
2019-03-04T19:32:45.918Z,89.10
2019-03-04T19:35:15.946Z,88.60
2019-03-04T19:37:44.268Z,88.60
2019-03-04T19:40:15.183Z,88.40
2019-03-04T19:42:43.577Z,88.40
2019-03-04T19:45:17.952Z,88.10
2019-03-04T19:47:46.347Z,88.30
2019-03-04T19:50:15.099Z,87.70
2019-03-04T19:52:43.527Z,88.00
2019-03-04T19:55:16.274Z,87.40
2019-03-04T19:57:44.829Z,87.30
2019-03-04T20:00:22.088Z,86.80
2019-03-04T20:02:50.532Z,86.40
2019-03-04T20:05:19.164Z,86.90
2019-03-04T20:07:47.436Z,86.00
2019-03-04T20:10:16.978Z,85.40
2019-03-04T20:12:45.331Z,85.50
2019-03-04T20:15:16.857Z,85.20
2019-03-04T20:17:45.204Z,84.70
2019-03-04T20:20:13.477Z,84.80
2019-03-04T20:22:41.813Z,84.50
2019-03-04T20:25:12.537Z,84.90
2019-03-04T20:27:41.066Z,84.80
2019-03-04T20:30:12.612Z,84.80
2019-03-04T20:32:40.913Z,85.00
2019-03-04T20:35:11.439Z,85.40
2019-03-04T20:37:42.756Z,85.60
2019-03-04T20:40:11.649Z,85.90
2019-03-04T20:42:39.951Z,86.10
2019-03-04T20:45:11.212Z,86.40
2019-03-04T20:47:39.497Z,86.60
2019-03-04T20:50:11.035Z,86.40
2019-03-04T20:52:39.417Z,86.50
2019-03-04T20:55:09.542Z,86.30
2019-03-04T20:57:37.953Z,86.40
2019-03-04T21:00:26.246Z,85.10
2019-03-04T21:02:54.646Z,84.50
2019-03-04T21:05:25.639Z,83.90
2019-03-04T21:07:53.427Z,84.00
2019-03-04T21:10:21.745Z,84.60
2019-03-04T21:12:51.750Z,84.50
2019-03-04T21:15:20.202Z,84.90
2019-03-04T21:17:48.602Z,84.60
2019-03-04T21:20:20.293Z,84.40
2019-03-04T21:22:48.626Z,83.70
2019-03-04T21:25:31.945Z,83.70
2019-03-04T21:28:00.284Z,83.00
2019-03-04T21:30:51.515Z,83.40
2019-03-04T21:33:21.813Z,82.60
2019-03-04T21:35:56.639Z,82.90
2019-03-04T21:38:25.461Z,82.80
2019-03-04T21:41:00.598Z,82.60
2019-03-04T21:43:32.933Z,82.60
2019-03-04T21:46:17.289Z,82.10
2019-03-04T21:48:48.831Z,82.00
2019-03-04T21:51:38.517Z,82.00
2019-03-04T21:54:06.991Z,82.10
2019-03-04T21:57:02.667Z,82.50
2019-03-04T21:59:30.952Z,82.40
2019-03-04T22:02:19.056Z,82.40
2019-03-04T22:04:47.388Z,82.80
2019-03-04T22:07:15.766Z,82.40
2019-03-04T22:09:44.063Z,82.90
2019-03-04T22:12:13.923Z,82.50
2019-03-04T22:14:42.361Z,81.30
2019-03-04T22:17:11.063Z,81.20
2019-03-04T22:19:39.361Z,79.40
2019-03-04T22:22:07.753Z,78.10
2019-03-04T22:24:36.049Z,77.30
2019-03-04T22:27:04.362Z,77.70
2019-03-04T22:29:32.687Z,76.30
2019-03-04T22:32:00.993Z,76.10
2019-03-04T22:34:29.308Z,76.40
2019-03-04T22:36:57.705Z,76.60
2019-03-04T22:39:26.089Z,77.00
2019-03-04T22:41:54.386Z,77.20
2019-03-04T22:44:22.916Z,76.60
2019-03-04T22:46:52.352Z,76.90
2019-03-04T22:49:20.941Z,77.00
2019-03-04T22:51:49.581Z,76.50
2019-03-04T22:54:17.974Z,76.90
2019-03-04T22:56:46.301Z,76.40
2019-03-04T22:59:14.674Z,76.80
2019-03-04T23:01:45.947Z,76.90
2019-03-04T23:04:16.984Z,77.70
2019-03-04T23:07:06.204Z,78.00
2019-03-04T23:09:55.745Z,78.50
2019-03-04T23:12:33.298Z,78.80
2019-03-04T23:15:01.672Z,79.40
2019-03-04T23:17:30.348Z,80.50
2019-03-04T23:19:58.666Z,80.50
2019-03-04T23:22:26.988Z,80.90
2019-03-04T23:24:55.293Z,81.80
2019-03-04T23:27:23.644Z,82.10
2019-03-04T23:29:51.994Z,82.40
2019-03-04T23:32:20.293Z,82.80
2019-03-04T23:34:48.683Z,83.20
2019-03-04T23:37:17.028Z,83.50
2019-03-04T23:39:45.379Z,84.10
2019-03-04T23:42:13.694Z,84.50
2019-03-04T23:44:42.046Z,85.00
2019-03-04T23:47:10.343Z,85.40
2019-03-04T23:49:39.004Z,86.10
2019-03-04T23:52:07.370Z,86.20
2019-03-04T23:54:35.672Z,86.60
2019-03-04T23:57:04.018Z,86.70
2019-03-04T23:59:32.302Z,86.90
